createdAt,value
2019-04-22T00:00:08.562Z,7.60
2019-04-22T00:00:44.837Z,7.60
2019-04-22T00:01:23.178Z,7.50
2019-04-22T00:01:57.866Z,7.50
2019-04-22T00:02:29.913Z,7.50
2019-04-22T00:03:09.159Z,7.50
2019-04-22T00:03:47.436Z,7.50
2019-04-22T00:04:26.992Z,7.40
2019-04-22T00:05:01.055Z,7.50
2019-04-22T00:05:49.136Z,7.50
2019-04-22T00:06:25.292Z,7.40
2019-04-22T00:06:57.441Z,7.50
2019-04-22T00:07:38.883Z,7.40
2019-04-22T00:08:09.091Z,7.40
2019-04-22T00:08:44.881Z,7.40
2019-04-22T00:09:24.167Z,7.40
2019-04-22T00:09:58.492Z,7.40
2019-04-22T00:10:32.348Z,7.40
2019-04-22T00:11:14.397Z,7.40
2019-04-22T00:11:46.651Z,7.40
2019-04-22T00:12:22.333Z,7.40
2019-04-22T00:12:53.040Z,7.40
2019-04-22T00:13:37.035Z,7.40
2019-04-22T00:14:00.912Z,7.40
2019-04-22T00:14:35.206Z,7.40
2019-04-22T00:15:10.168Z,7.40
2019-04-22T00:15:41.849Z,7.40
2019-04-22T00:16:27.563Z,7.30
2019-04-22T00:16:58.545Z,7.30
2019-04-22T00:17:46.508Z,7.20
2019-04-22T00:18:16.458Z,7.30
2019-04-22T00:19:01.831Z,7.30
2019-04-22T00:19:20.892Z,7.20
2019-04-22T00:19:57.598Z,7.20
2019-04-22T00:20:30.449Z,7.20
2019-04-22T00:21:04.730Z,7.20
2019-04-22T00:21:39.153Z,7.20
2019-04-22T00:22:18.581Z,7.20
2019-04-22T00:22:44.398Z,7.20
2019-04-22T00:23:24.675Z,7.10
2019-04-22T00:23:59.053Z,7.10
2019-04-22T00:24:36.658Z,7.10
2019-04-22T00:25:17.666Z,7.10
2019-04-22T00:25:49.411Z,7.20
2019-04-22T00:26:26.084Z,7.10
2019-04-22T00:26:58.062Z,7.10
2019-04-22T00:27:34.331Z,7.10
2019-04-22T00:28:08.563Z,7.10
2019-04-22T00:28:43.796Z,7.10
2019-04-22T00:29:39.549Z,7.10
2019-04-22T00:30:40.666Z,7.10
2019-04-22T00:31:13.097Z,7.00
2019-04-22T00:31:53.070Z,7.00
2019-04-22T00:32:41.796Z,7.00
2019-04-22T00:33:29.077Z,7.00
2019-04-22T00:34:06.144Z,7.00
2019-04-22T00:34:48.367Z,6.90
2019-04-22T00:35:18.096Z,6.90
2019-04-22T00:35:54.962Z,6.90
2019-04-22T00:36:35.262Z,6.90
2019-04-22T00:37:11.003Z,6.90
2019-04-22T00:37:54.174Z,6.90
2019-04-22T00:38:26.558Z,6.90
2019-04-22T00:38:58.827Z,6.80
2019-04-22T00:39:37.183Z,6.80
2019-04-22T00:40:12.862Z,6.70
2019-04-22T00:40:45.064Z,6.70
2019-04-22T00:41:23.335Z,6.70
2019-04-22T00:41:56.498Z,6.70
2019-04-22T00:42:36.345Z,6.60
2019-04-22T00:43:07.058Z,6.60
2019-04-22T00:43:39.518Z,6.60
2019-04-22T00:44:22.263Z,6.60
2019-04-22T00:44:57.841Z,6.60
2019-04-22T00:45:29.705Z,6.60
2019-04-22T00:45:59.052Z,6.60
2019-04-22T00:46:38.969Z,6.50
2019-04-22T00:47:16.350Z,6.50
2019-04-22T00:47:45.658Z,6.50
2019-04-22T00:48:38.358Z,6.50
2019-04-22T00:49:33.158Z,6.40
2019-04-22T00:50:25.447Z,6.40
2019-04-22T00:50:46.341Z,6.40
2019-04-22T00:51:22.660Z,6.30
2019-04-22T00:52:03.709Z,6.30
2019-04-22T00:53:11.661Z,6.30
2019-04-22T00:53:39.165Z,6.30
2019-04-22T00:54:18.060Z,6.30
2019-04-22T00:54:53.175Z,6.30
2019-04-22T00:55:28.648Z,6.20
2019-04-22T00:56:11.292Z,6.20
2019-04-22T00:56:40.641Z,6.20
2019-04-22T00:57:15.701Z,6.20
2019-04-22T00:57:56.219Z,6.20
2019-04-22T00:58:32.426Z,6.20
2019-04-22T00:59:06.575Z,6.10
2019-04-22T00:59:40.371Z,6.10
2019-04-22T01:00:17.717Z,6.10
2019-04-22T01:00:57.551Z,6.20
2019-04-22T01:01:23.887Z,6.20
2019-04-22T01:02:07.568Z,6.20
2019-04-22T01:02:41.617Z,6.20
2019-04-22T01:03:19.675Z,6.20
2019-04-22T01:04:31.151Z,6.20
2019-04-22T01:05:00.906Z,6.30
2019-04-22T01:05:34.205Z,6.30
2019-04-22T01:06:14.553Z,6.30
2019-04-22T01:06:38.635Z,6.30
2019-04-22T01:07:17.647Z,6.30
2019-04-22T01:08:04.010Z,6.30
2019-04-22T01:08:45.231Z,6.30
2019-04-22T01:09:10.756Z,6.30
2019-04-22T01:09:46.522Z,6.30
2019-04-22T01:10:20.389Z,6.30
2019-04-22T01:10:52.693Z,6.30
2019-04-22T01:11:29.146Z,6.30
2019-04-22T01:12:04.068Z,6.30
2019-04-22T01:12:39.543Z,6.30
2019-04-22T01:13:11.386Z,6.30
2019-04-22T01:13:44.288Z,6.30
2019-04-22T01:14:25.009Z,6.30
2019-04-22T01:15:05.753Z,6.30
2019-04-22T01:15:36.795Z,6.30
2019-04-22T01:16:13.992Z,6.30
2019-04-22T01:16:43.007Z,6.30
2019-04-22T01:17:21.171Z,6.20
2019-04-22T01:17:53.012Z,6.30
2019-04-22T01:18:27.943Z,6.30
2019-04-22T01:19:07.635Z,6.30
2019-04-22T01:19:45.167Z,6.30
2019-04-22T01:20:39.063Z,6.30
2019-04-22T01:21:10.625Z,6.30
2019-04-22T01:21:36.353Z,6.30
2019-04-22T01:22:06.684Z,6.30
2019-04-22T01:22:34.291Z,6.30
2019-04-22T01:23:10.941Z,6.30
2019-04-22T01:23:49.149Z,6.30
2019-04-22T01:24:22.071Z,6.30
2019-04-22T01:24:57.593Z,6.30
2019-04-22T01:25:34.139Z,6.30
2019-04-22T01:26:08.062Z,6.30
2019-04-22T01:26:39.989Z,6.20
2019-04-22T01:27:16.019Z,6.20
2019-04-22T01:27:48.872Z,6.20
2019-04-22T01:28:26.787Z,6.30
2019-04-22T01:29:02.475Z,6.20
2019-04-22T01:29:39.702Z,6.20
2019-04-22T01:30:09.695Z,6.20
2019-04-22T01:30:43.869Z,6.20
2019-04-22T01:31:17.887Z,6.20
2019-04-22T01:31:49.085Z,6.20
2019-04-22T01:32:30.350Z,6.10
2019-04-22T01:33:05.716Z,6.20
2019-04-22T01:33:40.110Z,6.20
2019-04-22T01:34:23.362Z,6.10
2019-04-22T01:34:59.863Z,6.20
2019-04-22T01:35:34.843Z,6.10
2019-04-22T01:36:13.913Z,6.10
2019-04-22T01:36:48.382Z,6.10
2019-04-22T01:37:21.789Z,6.10
2019-04-22T01:37:58.939Z,6.10
2019-04-22T01:38:31.439Z,6.10
2019-04-22T01:39:13.516Z,6.10
2019-04-22T01:39:49.852Z,6.10
2019-04-22T01:40:28.142Z,6.10
2019-04-22T01:40:59.735Z,6.10
2019-04-22T01:41:32.424Z,6.10
2019-04-22T01:42:05.659Z,6.20
2019-04-22T01:42:54.029Z,6.10
2019-04-22T01:43:16.768Z,6.10
2019-04-22T01:44:00.299Z,6.20
2019-04-22T01:44:33.250Z,6.10
2019-04-22T01:45:10.703Z,6.10
2019-04-22T01:45:39.339Z,6.10
2019-04-22T01:46:18.407Z,6.10
2019-04-22T01:46:58.201Z,6.10
2019-04-22T01:47:32.483Z,6.00
2019-04-22T01:48:05.387Z,6.00
2019-04-22T01:48:39.361Z,6.10
2019-04-22T01:49:55.984Z,6.10
2019-04-22T01:50:26.543Z,6.00
2019-04-22T01:50:54.827Z,6.10
2019-04-22T01:51:48.583Z,6.00
2019-04-22T01:52:14.057Z,6.10
2019-04-22T01:52:50.280Z,6.10
2019-04-22T01:53:22.682Z,6.10
2019-04-22T01:53:58.061Z,6.10
2019-04-22T01:54:38.385Z,6.10
2019-04-22T01:55:10.606Z,6.10
2019-04-22T01:55:38.082Z,6.10
2019-04-22T01:56:13.551Z,6.10
2019-04-22T01:56:49.387Z,6.10
2019-04-22T01:57:18.132Z,6.10
2019-04-22T01:57:53.924Z,6.10
2019-04-22T01:58:28.991Z,6.10
2019-04-22T01:58:59.038Z,6.10
2019-04-22T01:59:35.529Z,6.00
2019-04-22T02:00:11.411Z,6.00
2019-04-22T02:01:04.906Z,5.90
2019-04-22T02:01:30.652Z,5.90
2019-04-22T02:02:02.591Z,6.00
2019-04-22T02:02:41.822Z,5.90
2019-04-22T02:03:17.232Z,5.90
2019-04-22T02:03:54.613Z,5.90
2019-04-22T02:04:35.388Z,5.90
2019-04-22T02:05:07.325Z,5.80
2019-04-22T02:05:40.242Z,5.80
2019-04-22T02:06:17.232Z,5.80
2019-04-22T02:06:48.501Z,5.80
2019-04-22T02:07:28.098Z,5.80
2019-04-22T02:07:59.480Z,5.80
2019-04-22T02:08:40.891Z,5.70
2019-04-22T02:09:44.752Z,5.80
2019-04-22T02:10:26.927Z,5.80
2019-04-22T02:10:57.626Z,5.70
2019-04-22T02:11:35.173Z,5.70
2019-04-22T02:12:05.835Z,5.80
2019-04-22T02:12:42.627Z,5.70
2019-04-22T02:13:15.839Z,5.80
2019-04-22T02:13:49.338Z,5.80
2019-04-22T02:14:27.639Z,5.70
2019-04-22T02:14:57.853Z,5.70
2019-04-22T02:15:38.013Z,5.70
2019-04-22T02:16:15.222Z,5.70
2019-04-22T02:16:50.140Z,5.70
2019-04-22T02:17:28.633Z,5.70
2019-04-22T02:18:07.825Z,5.70
2019-04-22T02:19:11.658Z,5.70
2019-04-22T02:19:48.110Z,5.70
2019-04-22T02:20:18.819Z,5.70
2019-04-22T02:20:48.634Z,5.70
2019-04-22T02:21:28.590Z,5.70
2019-04-22T02:22:02.181Z,5.70
2019-04-22T02:23:40.167Z,5.70
2019-04-22T02:24:02.418Z,5.70
2019-04-22T02:24:35.241Z,5.70
2019-04-22T02:24:58.609Z,5.70
2019-04-22T02:25:44.741Z,5.70
2019-04-22T02:26:22.807Z,5.60
2019-04-22T02:27:09.243Z,5.60
2019-04-22T02:27:29.338Z,5.60
2019-04-22T02:28:11.244Z,5.60
2019-04-22T02:29:20.765Z,5.60
2019-04-22T02:29:47.758Z,5.60
2019-04-22T02:30:22.473Z,5.60
2019-04-22T02:31:20.133Z,5.50
2019-04-22T02:33:18.459Z,5.50
2019-04-22T02:33:43.247Z,5.50
2019-04-22T02:34:11.398Z,5.40
2019-04-22T02:35:57.765Z,5.40
2019-04-22T02:36:22.879Z,5.40
2019-04-22T02:37:23.436Z,5.40
2019-04-22T02:38:07.725Z,5.40
2019-04-22T02:38:51.893Z,5.50
2019-04-22T02:39:52.824Z,5.40
2019-04-22T02:40:35.415Z,5.40
2019-04-22T02:41:15.988Z,5.40
2019-04-22T02:42:35.332Z,5.40
2019-04-22T02:43:34.144Z,5.50
2019-04-22T02:44:02.070Z,5.40
2019-04-22T02:44:33.237Z,5.50
2019-04-22T02:45:23.116Z,5.40
2019-04-22T02:45:50.468Z,5.40
2019-04-22T02:47:11.929Z,5.40
2019-04-22T02:47:20.622Z,5.40
2019-04-22T02:47:59.144Z,5.40
2019-04-22T02:49:39.743Z,5.40
2019-04-22T02:50:19.771Z,5.40
2019-04-22T02:51:04.305Z,5.40
2019-04-22T02:52:06.874Z,5.40
2019-04-22T02:53:13.844Z,5.40
2019-04-22T02:55:04.924Z,5.40
2019-04-22T02:55:32.307Z,5.40
2019-04-22T02:56:25.076Z,5.40
2019-04-22T02:56:39.892Z,5.40
2019-04-22T02:57:35.460Z,5.40
2019-04-22T02:57:52.666Z,5.40
2019-04-22T02:58:37.356Z,5.40
2019-04-22T02:59:39.574Z,5.40
2019-04-22T03:00:21.539Z,5.30
2019-04-22T03:00:58.882Z,5.30
2019-04-22T03:01:30.068Z,5.30
2019-04-22T03:01:54.053Z,5.30
2019-04-22T03:03:03.900Z,5.30
2019-04-22T03:03:27.577Z,5.30
2019-04-22T03:04:20.541Z,5.30
2019-04-22T03:05:00.618Z,5.30
2019-04-22T03:05:37.281Z,5.30
2019-04-22T03:06:15.946Z,5.30
2019-04-22T03:07:12.477Z,5.30
2019-04-22T03:08:02.447Z,5.30
2019-04-22T03:08:36.777Z,5.30
2019-04-22T03:09:03.424Z,5.30
2019-04-22T03:11:24.823Z,5.20
2019-04-22T03:12:16.371Z,5.20
2019-04-22T03:13:21.349Z,5.10
2019-04-22T03:13:57.491Z,5.10
2019-04-22T03:14:35.634Z,5.10
2019-04-22T03:15:35.661Z,5.00
2019-04-22T03:16:44.589Z,5.00
2019-04-22T03:17:20.652Z,5.00
2019-04-22T03:18:38.330Z,5.00
2019-04-22T03:19:17.767Z,4.90
2019-04-22T03:19:50.593Z,4.90
2019-04-22T03:20:15.576Z,4.90
2019-04-22T03:20:58.796Z,4.90
2019-04-22T03:21:29.982Z,4.80
2019-04-22T03:22:00.763Z,4.80
2019-04-22T03:22:38.903Z,4.70
2019-04-22T03:23:56.422Z,4.70
2019-04-22T03:24:35.778Z,4.70
2019-04-22T03:25:36.528Z,4.70
2019-04-22T03:26:50.436Z,4.70
2019-04-22T03:27:16.232Z,4.70
2019-04-22T03:27:48.379Z,4.60
2019-04-22T03:28:44.300Z,4.60
2019-04-22T03:32:59.349Z,4.50
2019-04-22T03:33:19.886Z,4.40
2019-04-22T03:33:55.137Z,4.40
2019-04-22T03:36:06.727Z,4.30
2019-04-22T03:37:04.560Z,4.30
2019-04-22T03:37:23.141Z,4.30
2019-04-22T03:37:55.864Z,4.20
2019-04-22T03:38:29.414Z,4.20
2019-04-22T03:39:15.416Z,4.20
2019-04-22T03:39:45.482Z,4.10
2019-04-22T03:41:15.219Z,4.10
2019-04-22T03:41:36.822Z,4.10
2019-04-22T03:42:45.786Z,4.20
2019-04-22T03:43:54.122Z,4.20
2019-04-22T03:45:00.884Z,4.20
2019-04-22T03:46:01.665Z,4.20
2019-04-22T03:46:57.455Z,4.30
2019-04-22T03:47:21.693Z,4.30
2019-04-22T03:48:17.584Z,4.30
2019-04-22T03:49:12.139Z,4.30
2019-04-22T03:49:45.666Z,4.30
2019-04-22T03:50:15.697Z,4.30
2019-04-22T03:51:33.778Z,4.30
2019-04-22T03:52:20.787Z,4.40
2019-04-22T03:53:09.848Z,4.40
2019-04-22T03:53:38.716Z,4.40
2019-04-22T03:54:29.217Z,4.40
2019-04-22T03:54:53.891Z,4.40
2019-04-22T03:55:26.077Z,4.50
2019-04-22T03:56:03.996Z,4.50
2019-04-22T03:57:08.114Z,4.40
2019-04-22T03:57:26.464Z,4.50
2019-04-22T03:58:11.025Z,4.50
2019-04-22T03:58:57.099Z,4.50
2019-04-22T03:59:33.670Z,4.40
2019-04-22T04:00:21.928Z,4.40
2019-04-22T04:00:47.464Z,4.40
2019-04-22T04:01:29.592Z,4.40
2019-04-22T04:02:07.841Z,4.40
2019-04-22T04:02:38.656Z,4.40
2019-04-22T04:03:51.300Z,4.30
2019-04-22T04:04:45.601Z,4.40
2019-04-22T04:04:49.536Z,4.30
2019-04-22T04:05:43.974Z,4.40
2019-04-22T04:05:59.505Z,4.40
2019-04-22T04:06:54.168Z,4.40
2019-04-22T04:07:40.700Z,4.40
2019-04-22T04:07:56.932Z,4.40
2019-04-22T04:08:33.419Z,4.40
2019-04-22T04:09:09.033Z,4.40
2019-04-22T04:09:39.992Z,4.40
2019-04-22T04:10:25.238Z,4.40
2019-04-22T04:11:06.988Z,4.40
2019-04-22T04:11:35.066Z,4.40
2019-04-22T04:12:37.751Z,4.40
2019-04-22T04:13:52.175Z,4.50
2019-04-22T04:14:26.871Z,4.50
2019-04-22T04:15:05.410Z,4.50
2019-04-22T04:16:07.929Z,4.50
2019-04-22T04:16:49.896Z,4.50
2019-04-22T04:17:53.467Z,4.60
2019-04-22T04:18:19.214Z,4.60
2019-04-22T04:21:57.675Z,4.80
2019-04-22T04:22:56.141Z,4.80
2019-04-22T04:24:01.376Z,4.90
2019-04-22T04:25:42.786Z,5.00
2019-04-22T04:26:05.225Z,5.00
2019-04-22T04:27:03.295Z,5.00
2019-04-22T04:27:30.883Z,5.10
2019-04-22T04:28:53.262Z,5.10
2019-04-22T04:29:17.167Z,5.10
2019-04-22T04:32:07.242Z,5.20
2019-04-22T04:33:04.887Z,5.20
2019-04-22T04:34:29.765Z,5.20
2019-04-22T04:35:40.535Z,5.20
2019-04-22T04:36:02.644Z,5.30
2019-04-22T04:36:42.546Z,5.30
2019-04-22T04:37:38.742Z,5.30
2019-04-22T04:38:21.164Z,5.30
2019-04-22T04:39:34.147Z,5.40
2019-04-22T04:40:12.492Z,5.40
2019-04-22T04:40:46.095Z,5.40
2019-04-22T04:42:58.668Z,5.50
2019-04-22T04:43:50.420Z,5.50
2019-04-22T04:45:40.507Z,5.60
2019-04-22T04:46:09.975Z,5.60
2019-04-22T04:47:11.600Z,5.60
2019-04-22T04:47:47.769Z,5.60
2019-04-22T04:48:21.005Z,5.70
2019-04-22T04:49:00.486Z,5.70
2019-04-22T04:50:41.477Z,5.90
2019-04-22T04:51:35.352Z,5.90
2019-04-22T04:52:27.709Z,6.00
2019-04-22T04:52:38.660Z,6.00
2019-04-22T04:53:06.303Z,6.10
2019-04-22T04:54:48.464Z,6.40
2019-04-22T04:55:24.452Z,6.50
2019-04-22T04:55:59.841Z,6.70
2019-04-22T04:56:36.270Z,6.90
2019-04-22T04:57:07.474Z,7.10
2019-04-22T04:58:25.752Z,7.60
2019-04-22T04:59:11.930Z,7.80
2019-04-22T05:00:48.607Z,8.60
2019-04-22T05:01:11.000Z,8.90
2019-04-22T05:03:08.333Z,9.80
2019-04-22T05:03:39.750Z,10.00
2019-04-22T05:04:14.222Z,10.20
2019-04-22T05:04:59.282Z,10.50
2019-04-22T05:05:16.815Z,10.80
2019-04-22T05:05:54.724Z,11.00
2019-04-22T05:07:17.695Z,11.40
2019-04-22T05:08:19.335Z,11.80
2019-04-22T05:09:00.878Z,12.20
2019-04-22T05:09:22.502Z,12.20
2019-04-22T05:10:00.588Z,12.40
2019-04-22T05:10:53.565Z,12.50
2019-04-22T05:11:16.178Z,12.70
2019-04-22T05:11:52.111Z,13.00
2019-04-22T05:13:33.511Z,13.50
2019-04-22T05:14:17.213Z,13.70
2019-04-22T05:14:44.632Z,13.90
2019-04-22T05:15:19.227Z,14.00
2019-04-22T05:16:03.182Z,14.30
2019-04-22T05:17:07.536Z,14.80
2019-04-22T05:18:44.803Z,15.20
2019-04-22T05:19:23.951Z,15.20
2019-04-22T05:19:56.820Z,15.30
2019-04-22T05:21:14.760Z,15.90
2019-04-22T05:21:40.181Z,16.10
2019-04-22T05:22:15.260Z,16.20
2019-04-22T05:22:44.765Z,16.40
2019-04-22T05:24:02.354Z,16.30
2019-04-22T05:24:35.988Z,16.60
2019-04-22T05:25:19.056Z,16.90
2019-04-22T05:25:41.133Z,17.00
2019-04-22T05:26:27.924Z,16.90
2019-04-22T05:27:11.303Z,16.90
2019-04-22T05:28:20.416Z,16.80
2019-04-22T05:28:44.895Z,17.00
2019-04-22T05:29:27.784Z,17.00
2019-04-22T05:30:34.236Z,17.30
2019-04-22T05:31:08.703Z,17.40
2019-04-22T05:31:45.967Z,17.40
2019-04-22T05:32:17.508Z,17.40
2019-04-22T05:32:47.368Z,17.10
2019-04-22T05:33:33.033Z,17.30
2019-04-22T05:34:04.413Z,17.30
2019-04-22T05:34:36.562Z,17.10
2019-04-22T05:35:14.339Z,17.00
2019-04-22T05:35:49.319Z,17.10
2019-04-22T05:37:00.674Z,17.20
2019-04-22T05:37:34.937Z,16.90
2019-04-22T05:38:09.930Z,16.80
2019-04-22T05:38:49.386Z,16.90
2019-04-22T05:39:16.785Z,17.00
2019-04-22T05:40:04.456Z,17.00
2019-04-22T05:41:02.613Z,16.70
2019-04-22T05:41:41.521Z,16.80
2019-04-22T05:42:51.512Z,16.90
2019-04-22T05:43:27.261Z,16.80
2019-04-22T05:44:03.235Z,16.80
2019-04-22T05:45:17.256Z,16.90
2019-04-22T05:45:52.738Z,17.00
2019-04-22T05:46:22.458Z,17.00
2019-04-22T05:47:01.023Z,17.00
2019-04-22T05:47:35.230Z,16.60
2019-04-22T05:48:13.662Z,15.90
2019-04-22T05:48:43.992Z,15.90
2019-04-22T05:49:19.327Z,15.80
2019-04-22T05:49:55.268Z,15.90
2019-04-22T05:50:32.661Z,15.90
2019-04-22T05:51:01.030Z,16.10
2019-04-22T05:51:42.046Z,16.30
2019-04-22T05:52:17.253Z,16.50
2019-04-22T05:52:51.101Z,16.50
2019-04-22T05:53:25.766Z,16.50
2019-04-22T05:54:01.483Z,16.40
2019-04-22T05:54:38.996Z,16.40
2019-04-22T05:55:16.705Z,16.50
2019-04-22T05:55:48.922Z,16.60
2019-04-22T05:56:37.167Z,16.60
2019-04-22T05:56:53.379Z,16.50
2019-04-22T05:57:34.431Z,16.40
2019-04-22T05:58:08.678Z,16.50
2019-04-22T05:58:44.978Z,16.40
2019-04-22T05:59:17.960Z,16.20
2019-04-22T06:00:06.302Z,16.10
2019-04-22T06:01:01.638Z,15.80
2019-04-22T06:01:52.030Z,15.80
2019-04-22T06:02:23.535Z,15.70
2019-04-22T06:03:32.905Z,15.40
2019-04-22T06:04:05.325Z,15.30
2019-04-22T06:04:39.130Z,15.30
2019-04-22T06:05:47.281Z,15.30
2019-04-22T06:06:22.624Z,15.10
2019-04-22T06:07:00.530Z,15.00
2019-04-22T06:07:32.286Z,15.00
2019-04-22T06:08:10.291Z,15.10
2019-04-22T06:08:46.908Z,15.00
2019-04-22T06:09:24.847Z,15.00
2019-04-22T06:10:08.218Z,15.00
2019-04-22T06:10:39.580Z,14.90
2019-04-22T06:11:17.348Z,14.70
2019-04-22T06:11:36.152Z,14.50
2019-04-22T06:12:23.516Z,14.60
2019-04-22T06:13:02.216Z,14.60
2019-04-22T06:13:36.706Z,14.50
2019-04-22T06:14:13.905Z,14.40
2019-04-22T06:14:54.250Z,14.20
2019-04-22T06:15:28.861Z,14.20
2019-04-22T06:16:04.317Z,14.10
2019-04-22T06:16:45.715Z,14.00
2019-04-22T06:17:18.355Z,14.10
2019-04-22T06:18:07.955Z,14.00
2019-04-22T06:18:33.405Z,14.00
2019-04-22T06:19:10.113Z,13.80
2019-04-22T06:19:44.831Z,13.80
2019-04-22T06:20:15.877Z,13.80
2019-04-22T06:21:03.696Z,13.80
2019-04-22T06:21:31.310Z,13.80
2019-04-22T06:21:59.159Z,13.90
2019-04-22T06:22:43.162Z,13.80
2019-04-22T06:23:12.664Z,13.70
2019-04-22T06:23:46.813Z,13.70
2019-04-22T06:24:23.281Z,13.70
2019-04-22T06:24:57.281Z,13.70
2019-04-22T06:27:21.968Z,13.40
2019-04-22T06:28:15.826Z,13.40
2019-04-22T06:28:34.865Z,13.50
2019-04-22T06:29:04.650Z,13.50
2019-04-22T06:29:46.251Z,13.60
2019-04-22T06:30:15.397Z,13.40
2019-04-22T06:30:51.213Z,13.30
2019-04-22T06:31:28.345Z,13.30
2019-04-22T06:32:22.328Z,13.40
2019-04-22T06:33:11.307Z,13.30
2019-04-22T06:33:44.309Z,13.30
2019-04-22T06:34:22.390Z,13.30
2019-04-22T06:34:53.079Z,13.20
2019-04-22T06:35:37.960Z,13.00
2019-04-22T06:36:03.407Z,13.10
2019-04-22T06:38:12.503Z,12.90
2019-04-22T06:38:55.889Z,12.90
2019-04-22T06:39:35.710Z,12.90
2019-04-22T06:40:13.068Z,12.80
2019-04-22T06:40:46.851Z,12.90
2019-04-22T06:41:21.191Z,12.90
2019-04-22T06:41:58.932Z,12.90
2019-04-22T06:42:39.394Z,12.90
2019-04-22T06:43:13.719Z,13.00
2019-04-22T06:43:46.736Z,13.00
2019-04-22T06:44:59.952Z,13.20
2019-04-22T06:45:32.272Z,13.30
2019-04-22T06:46:09.826Z,13.30
2019-04-22T06:46:42.728Z,13.30
2019-04-22T06:47:21.088Z,13.40
2019-04-22T06:47:59.113Z,13.30
2019-04-22T06:48:23.702Z,13.40
2019-04-22T06:49:03.269Z,13.40
2019-04-22T06:49:35.185Z,13.50
2019-04-22T06:50:20.953Z,13.60
2019-04-22T06:50:51.006Z,13.60
2019-04-22T06:51:30.999Z,13.70
2019-04-22T06:52:04.495Z,13.60
2019-04-22T06:52:28.131Z,13.60
2019-04-22T06:53:09.036Z,13.60
2019-04-22T06:53:45.411Z,13.50
2019-04-22T06:54:21.845Z,13.40
2019-04-22T06:54:54.294Z,13.40
2019-04-22T06:55:59.682Z,13.30
2019-04-22T06:56:35.643Z,13.20
2019-04-22T06:57:13.190Z,13.20
2019-04-22T06:57:51.215Z,13.20
2019-04-22T06:58:19.984Z,13.20
2019-04-22T06:58:57.780Z,13.30
2019-04-22T06:59:37.756Z,13.30
2019-04-22T07:00:10.610Z,13.20
2019-04-22T07:00:44.499Z,13.20
2019-04-22T07:02:06.473Z,13.30
2019-04-22T07:02:47.185Z,13.30
2019-04-22T07:03:30.398Z,13.40
2019-04-22T07:03:52.352Z,13.40
2019-04-22T07:04:19.715Z,13.50
2019-04-22T07:04:56.517Z,13.50
2019-04-22T07:05:27.905Z,13.60
2019-04-22T07:06:07.377Z,13.60
2019-04-22T07:06:41.580Z,13.70
2019-04-22T07:07:14.176Z,13.80
2019-04-22T07:07:57.373Z,13.90
2019-04-22T07:09:42.719Z,13.80
2019-04-22T07:10:26.787Z,14.00
2019-04-22T07:10:47.741Z,14.00
2019-04-22T07:11:18.766Z,14.00
2019-04-22T07:11:58.819Z,14.00
2019-04-22T07:13:15.163Z,14.00
2019-04-22T07:13:43.267Z,14.00
2019-04-22T07:14:20.384Z,13.90
2019-04-22T07:14:57.649Z,13.90
2019-04-22T07:15:43.849Z,13.80
2019-04-22T07:17:17.473Z,14.00
2019-04-22T07:18:33.040Z,14.00
2019-04-22T07:19:01.884Z,14.00
2019-04-22T07:19:55.853Z,14.00
2019-04-22T07:20:10.632Z,14.00
2019-04-22T07:21:22.214Z,13.90
2019-04-22T07:21:57.155Z,13.90
2019-04-22T07:22:45.507Z,14.00
2019-04-22T07:23:13.843Z,14.10
2019-04-22T07:24:43.824Z,14.10
2019-04-22T07:24:56.131Z,14.20
2019-04-22T07:25:23.559Z,14.20
2019-04-22T07:26:18.919Z,14.20
2019-04-22T07:26:37.238Z,14.20
2019-04-22T07:27:30.676Z,14.20
2019-04-22T07:27:45.998Z,14.20
2019-04-22T07:28:20.269Z,14.20
2019-04-22T07:28:57.515Z,14.20
2019-04-22T07:29:32.724Z,14.10
2019-04-22T07:30:15.390Z,14.00
2019-04-22T07:30:41.062Z,14.00
2019-04-22T07:31:19.003Z,14.00
2019-04-22T07:31:56.283Z,14.10
2019-04-22T07:33:37.706Z,14.10
2019-04-22T07:35:28.973Z,14.10
2019-04-22T07:36:53.591Z,14.10
2019-04-22T07:37:23.370Z,14.20
2019-04-22T07:38:00.583Z,14.20
2019-04-22T07:38:25.714Z,14.30
2019-04-22T07:38:52.723Z,14.30
2019-04-22T07:39:32.570Z,14.30
2019-04-22T07:40:02.234Z,14.20
2019-04-22T07:40:43.975Z,14.30
2019-04-22T07:41:17.290Z,14.40
2019-04-22T07:42:05.529Z,14.50
2019-04-22T07:42:28.245Z,14.50
2019-04-22T07:43:04.318Z,14.50
2019-04-22T07:43:53.063Z,14.50
2019-04-22T07:44:16.555Z,14.50
2019-04-22T07:44:52.855Z,14.50
2019-04-22T07:45:25.482Z,14.50
2019-04-22T07:45:54.937Z,14.50
2019-04-22T07:46:39.030Z,14.40
2019-04-22T07:47:13.442Z,14.40
2019-04-22T07:47:50.033Z,14.30
2019-04-22T07:48:26.542Z,14.40
2019-04-22T07:48:53.943Z,14.40
2019-04-22T07:49:32.254Z,14.40
2019-04-22T07:50:08.243Z,14.40
2019-04-22T07:50:52.742Z,14.40
2019-04-22T07:51:13.301Z,14.40
2019-04-22T07:51:49.855Z,14.40
2019-04-22T07:52:22.920Z,14.40
2019-04-22T07:53:02.914Z,14.50
2019-04-22T07:53:37.062Z,14.60
2019-04-22T07:54:46.764Z,14.50
2019-04-22T07:55:13.449Z,14.50
2019-04-22T07:55:51.848Z,14.50
2019-04-22T07:56:30.533Z,14.50
2019-04-22T07:57:12.137Z,14.60
2019-04-22T07:57:36.822Z,14.60
2019-04-22T07:58:49.072Z,14.70
2019-04-22T08:00:02.887Z,14.70
2019-04-22T08:00:35.712Z,14.80
2019-04-22T08:01:18.510Z,14.80
2019-04-22T08:01:42.294Z,14.80
2019-04-22T08:02:26.200Z,14.80
2019-04-22T08:03:01.355Z,14.80
2019-04-22T08:03:38.196Z,14.80
2019-04-22T08:05:16.894Z,14.80
2019-04-22T08:05:59.447Z,14.80
2019-04-22T08:06:34.625Z,14.70
2019-04-22T08:07:10.962Z,14.70
2019-04-22T08:07:36.530Z,14.80
2019-04-22T08:08:19.896Z,14.70
2019-04-22T08:08:49.056Z,14.70
2019-04-22T08:09:27.744Z,14.70
2019-04-22T08:10:08.469Z,14.70
2019-04-22T08:10:38.661Z,14.50
2019-04-22T08:11:21.857Z,14.60
2019-04-22T08:11:49.866Z,14.60
2019-04-22T08:12:21.675Z,14.50
2019-04-22T08:12:55.031Z,14.60
2019-04-22T08:13:40.683Z,14.60
2019-04-22T08:13:58.740Z,14.70
2019-04-22T08:14:40.845Z,14.80
2019-04-22T08:15:19.724Z,14.80
2019-04-22T08:15:53.678Z,14.90
2019-04-22T08:16:23.560Z,14.90
2019-04-22T08:17:19.282Z,14.90
2019-04-22T08:18:15.168Z,14.80
2019-04-22T08:18:48.443Z,14.70
2019-04-22T08:19:33.689Z,14.70
2019-04-22T08:20:05.541Z,14.80
2019-04-22T08:20:33.943Z,14.80
2019-04-22T08:21:12.342Z,14.80
2019-04-22T08:21:46.078Z,14.70
2019-04-22T08:22:14.375Z,14.80
2019-04-22T08:23:01.116Z,14.80
2019-04-22T08:23:33.944Z,14.90
2019-04-22T08:24:13.066Z,14.90
2019-04-22T08:24:43.311Z,15.00
2019-04-22T08:25:10.539Z,15.00
2019-04-22T08:26:11.190Z,15.00
2019-04-22T08:26:27.413Z,15.10
2019-04-22T08:27:08.721Z,15.10
2019-04-22T08:27:39.491Z,15.20
2019-04-22T08:28:51.737Z,15.20
2019-04-22T08:29:28.564Z,15.10
2019-04-22T08:31:17.985Z,15.30
2019-04-22T08:31:48.601Z,15.20
2019-04-22T08:32:22.423Z,15.20
2019-04-22T08:32:53.327Z,15.30
2019-04-22T08:33:38.197Z,15.40
2019-04-22T08:34:12.189Z,15.40
2019-04-22T08:34:37.069Z,15.40
2019-04-22T08:35:20.205Z,15.40
2019-04-22T08:36:29.179Z,15.50
2019-04-22T08:37:24.029Z,15.40
2019-04-22T08:38:06.839Z,15.40
2019-04-22T08:38:50.730Z,15.40
2019-04-22T08:39:18.880Z,15.40
2019-04-22T08:39:48.600Z,15.40
2019-04-22T08:40:28.830Z,15.40
2019-04-22T08:41:20.886Z,15.50
2019-04-22T08:41:40.305Z,15.50
2019-04-22T08:42:29.525Z,15.50
2019-04-22T08:43:36.382Z,15.60
2019-04-22T08:44:07.664Z,15.60
2019-04-22T08:46:05.620Z,15.60
2019-04-22T08:46:33.082Z,15.60
2019-04-22T08:47:10.993Z,15.60
2019-04-22T08:47:35.950Z,15.70
2019-04-22T08:48:18.089Z,15.80
2019-04-22T08:49:39.516Z,15.80
2019-04-22T08:50:41.324Z,15.70
2019-04-22T08:51:16.813Z,15.60
2019-04-22T08:51:42.838Z,15.60
2019-04-22T08:52:28.842Z,15.60
2019-04-22T08:53:05.761Z,15.60
2019-04-22T08:53:41.504Z,15.60
2019-04-22T08:54:13.240Z,15.60
2019-04-22T08:55:04.417Z,15.70
2019-04-22T08:55:24.369Z,15.70
2019-04-22T08:56:10.470Z,15.70
2019-04-22T08:58:03.702Z,15.90
2019-04-22T08:58:57.316Z,16.10
2019-04-22T08:59:21.815Z,16.10
2019-04-22T09:00:02.368Z,16.20
2019-04-22T09:00:47.942Z,16.20
2019-04-22T09:01:11.339Z,16.20
2019-04-22T09:01:46.868Z,16.20
2019-04-22T09:02:27.676Z,16.10
2019-04-22T09:02:59.542Z,16.20
2019-04-22T09:03:36.101Z,16.20
2019-04-22T09:04:42.078Z,16.30
2019-04-22T09:05:22.790Z,16.20
2019-04-22T09:06:11.228Z,16.20
2019-04-22T09:06:38.450Z,16.30
2019-04-22T09:07:14.130Z,16.30
2019-04-22T09:07:38.370Z,16.30
2019-04-22T09:08:19.110Z,16.30
2019-04-22T09:08:55.247Z,16.20
2019-04-22T09:09:27.069Z,16.30
2019-04-22T09:10:37.858Z,16.20
2019-04-22T09:11:16.467Z,16.20
2019-04-22T09:11:48.269Z,16.20
2019-04-22T09:12:32.785Z,16.10
2019-04-22T09:13:29.805Z,16.20
2019-04-22T09:14:41.680Z,16.10
2019-04-22T09:15:16.242Z,15.90
2019-04-22T09:15:52.148Z,15.90